sensor_id;sensor_type;location;lat;lon;timestamp;temperature;humidity
69776;DHT22;57049;51.450;-2.516;2023-06-04T00:02:11;12.99;79.36
69776;DHT22;57049;51.450;-2.516;2023-06-04T00:04:37;12.93;79.60
69776;DHT22;57049;51.450;-2.516;2023-06-04T00:07:02;12.93;79.70
69776;DHT22;57049;51.450;-2.516;2023-06-04T00:09:28;12.82;80.05
69776;DHT22;57049;51.450;-2.516;2023-06-04T00:11:54;12.75;80.62
69776;DHT22;57049;51.450;-2.516;2023-06-04T00:14:20;12.66;80.90
69776;DHT22;57049;51.450;-2.516;2023-06-04T00:16:45;12.63;81.19
69776;DHT22;57049;51.450;-2.516;2023-06-04T00:19:11;12.58;81.23
69776;DHT22;57049;51.450;-2.516;2023-06-04T00:21:36;12.52;81.55
69776;DHT22;57049;51.450;-2.516;2023-06-04T00:24:02;12.53;81.45
69776;DHT22;57049;51.450;-2.516;2023-06-04T00:26:27;12.46;81.74
69776;DHT22;57049;51.450;-2.516;2023-06-04T00:28:56;12.41;81.98
69776;DHT22;57049;51.450;-2.516;2023-06-04T00:31:21;12.38;82.12
69776;DHT22;57049;51.450;-2.516;2023-06-04T00:33:50;12.41;82.02
69776;DHT22;57049;51.450;-2.516;2023-06-04T00:36:15;12.32;82.32
69776;DHT22;57049;51.450;-2.516;2023-06-04T00:38:41;12.24;82.72
69776;DHT22;57049;51.450;-2.516;2023-06-04T00:41:06;12.17;82.83
69776;DHT22;57049;51.450;-2.516;2023-06-04T00:43:32;12.13;83.20
69776;DHT22;57049;51.450;-2.516;2023-06-04T00:45:59;12.05;83.36
69776;DHT22;57049;51.450;-2.516;2023-06-04T00:48:26;12.01;83.45
69776;DHT22;57049;51.450;-2.516;2023-06-04T00:50:53;12.02;83.42
69776;DHT22;57049;51.450;-2.516;2023-06-04T00:53:20;11.95;83.67
69776;DHT22;57049;51.450;-2.516;2023-06-04T00:55:46;11.87;83.91
69776;DHT22;57049;51.450;-2.516;2023-06-04T00:58:11;11.84;83.94
69776;DHT22;57049;51.450;-2.516;2023-06-04T01:00:38;11.78;84.13
69776;DHT22;57049;51.450;-2.516;2023-06-04T01:03:07;11.74;84.19
69776;DHT22;57049;51.450;-2.516;2023-06-04T01:05:48;11.70;84.23
69776;DHT22;57049;51.450;-2.516;2023-06-04T01:08:18;11.63;84.51
69776;DHT22;57049;51.450;-2.516;2023-06-04T01:10:53;11.63;84.50
69776;DHT22;57049;51.450;-2.516;2023-06-04T01:13:20;11.53;85.06
69776;DHT22;57049;51.450;-2.516;2023-06-04T01:15:46;11.49;85.23
69776;DHT22;57049;51.450;-2.516;2023-06-04T01:18:23;11.47;85.37
69776;DHT22;57049;51.450;-2.516;2023-06-04T01:21:14;11.43;85.58
69776;DHT22;57049;51.450;-2.516;2023-06-04T01:23:49;11.43;85.61
69776;DHT22;57049;51.450;-2.516;2023-06-04T01:26:24;11.39;85.72
69776;DHT22;57049;51.450;-2.516;2023-06-04T01:28:51;11.40;85.66
69776;DHT22;57049;51.450;-2.516;2023-06-04T01:31:17;11.30;85.98
69776;DHT22;57049;51.450;-2.516;2023-06-04T01:33:42;11.23;86.39
69776;DHT22;57049;51.450;-2.516;2023-06-04T01:36:08;11.20;86.40
69776;DHT22;57049;51.450;-2.516;2023-06-04T01:38:35;11.22;86.58
69776;DHT22;57049;51.450;-2.516;2023-06-04T01:41:01;11.16;86.72
69776;DHT22;57049;51.450;-2.516;2023-06-04T01:43:27;11.20;86.46
69776;DHT22;57049;51.450;-2.516;2023-06-04T01:45:53;11.13;86.74
69776;DHT22;57049;51.450;-2.516;2023-06-04T01:48:19;11.09;86.87
69776;DHT22;57049;51.450;-2.516;2023-06-04T01:50:45;11.02;87.40
69776;DHT22;57049;51.450;-2.516;2023-06-04T01:53:10;11.02;87.38
69776;DHT22;57049;51.450;-2.516;2023-06-04T01:55:36;10.98;87.51
69776;DHT22;57049;51.450;-2.516;2023-06-04T01:58:02;10.95;87.77
69776;DHT22;57049;51.450;-2.516;2023-06-04T02:00:28;10.96;87.55
69776;DHT22;57049;51.450;-2.516;2023-06-04T02:02:54;10.89;87.69
69776;DHT22;57049;51.450;-2.516;2023-06-04T02:05:21;10.84;87.89
69776;DHT22;57049;51.450;-2.516;2023-06-04T02:07:46;10.82;87.95
69776;DHT22;57049;51.450;-2.516;2023-06-04T02:10:14;10.82;88.04
69776;DHT22;57049;51.450;-2.516;2023-06-04T02:12:51;10.82;87.82
69776;DHT22;57049;51.450;-2.516;2023-06-04T02:15:17;10.72;88.17
69776;DHT22;57049;51.450;-2.516;2023-06-04T02:17:42;10.78;87.94
69776;DHT22;57049;51.450;-2.516;2023-06-04T02:20:11;10.72;88.13
69776;DHT22;57049;51.450;-2.516;2023-06-04T02:22:36;10.68;88.39
69776;DHT22;57049;51.450;-2.516;2023-06-04T02:25:02;10.62;88.59
69776;DHT22;57049;51.450;-2.516;2023-06-04T02:27:28;10.60;88.69
69776;DHT22;57049;51.450;-2.516;2023-06-04T02:29:53;10.58;88.87
69776;DHT22;57049;51.450;-2.516;2023-06-04T02:32:19;10.54;89.09
69776;DHT22;57049;51.450;-2.516;2023-06-04T02:34:44;10.51;89.34
69776;DHT22;57049;51.450;-2.516;2023-06-04T02:37:10;10.51;89.16
69776;DHT22;57049;51.450;-2.516;2023-06-04T02:39:35;10.52;89.34
69776;DHT22;57049;51.450;-2.516;2023-06-04T02:42:01;10.50;89.44
69776;DHT22;57049;51.450;-2.516;2023-06-04T02:44:26;10.43;89.65
69776;DHT22;57049;51.450;-2.516;2023-06-04T02:46:53;10.44;89.57
69776;DHT22;57049;51.450;-2.516;2023-06-04T02:49:18;10.44;89.79
69776;DHT22;57049;51.450;-2.516;2023-06-04T02:51:44;10.41;89.77
69776;DHT22;57049;51.450;-2.516;2023-06-04T02:54:10;10.40;89.86
69776;DHT22;57049;51.450;-2.516;2023-06-04T02:56:36;10.36;89.98
69776;DHT22;57049;51.450;-2.516;2023-06-04T02:59:02;10.33;90.06
69776;DHT22;57049;51.450;-2.516;2023-06-04T03:01:28;10.30;89.95
69776;DHT22;57049;51.450;-2.516;2023-06-04T03:03:54;10.31;90.05
69776;DHT22;57049;51.450;-2.516;2023-06-04T03:06:21;10.25;90.18
69776;DHT22;57049;51.450;-2.516;2023-06-04T03:08:50;10.33;89.91
69776;DHT22;57049;51.450;-2.516;2023-06-04T03:11:17;10.24;89.98
69776;DHT22;57049;51.450;-2.516;2023-06-04T03:13:42;10.17;90.12
69776;DHT22;57049;51.450;-2.516;2023-06-04T03:16:08;10.16;90.16
69776;DHT22;57049;51.450;-2.516;2023-06-04T03:18:39;10.16;90.04
69776;DHT22;57049;51.450;-2.516;2023-06-04T03:21:05;10.16;89.93
69776;DHT22;57049;51.450;-2.516;2023-06-04T03:23:31;10.06;90.21
69776;DHT22;57049;51.450;-2.516;2023-06-04T03:25:56;10.07;90.26
69776;DHT22;57049;51.450;-2.516;2023-06-04T03:28:22;10.01;90.32
69776;DHT22;57049;51.450;-2.516;2023-06-04T03:30:47;9.92;90.73
69776;DHT22;57049;51.450;-2.516;2023-06-04T03:33:13;9.94;90.53
69776;DHT22;57049;51.450;-2.516;2023-06-04T03:35:40;9.93;90.46
69776;DHT22;57049;51.450;-2.516;2023-06-04T03:38:06;9.87;90.63
69776;DHT22;57049;51.450;-2.516;2023-06-04T03:40:32;9.83;90.76
69776;DHT22;57049;51.450;-2.516;2023-06-04T03:42:57;9.83;90.64
69776;DHT22;57049;51.450;-2.516;2023-06-04T03:45:23;9.83;90.59
69776;DHT22;57049;51.450;-2.516;2023-06-04T03:47:48;9.80;90.61
69776;DHT22;57049;51.450;-2.516;2023-06-04T03:50:14;9.78;90.68
69776;DHT22;57049;51.450;-2.516;2023-06-04T03:52:39;9.78;90.75
69776;DHT22;57049;51.450;-2.516;2023-06-04T03:55:05;9.73;90.72
69776;DHT22;57049;51.450;-2.516;2023-06-04T03:57:30;9.72;90.82
69776;DHT22;57049;51.450;-2.516;2023-06-04T03:59:56;9.75;90.75
69776;DHT22;57049;51.450;-2.516;2023-06-04T04:02:21;9.70;90.85
69776;DHT22;57049;51.450;-2.516;2023-06-04T04:04:47;9.72;90.85
69776;DHT22;57049;51.450;-2.516;2023-06-04T04:07:13;9.70;90.86
69776;DHT22;57049;51.450;-2.516;2023-06-04T04:09:39;9.68;90.70
69776;DHT22;57049;51.450;-2.516;2023-06-04T04:12:05;9.66;90.79
69776;DHT22;57049;51.450;-2.516;2023-06-04T04:14:30;9.70;90.71
69776;DHT22;57049;51.450;-2.516;2023-06-04T04:16:56;9.69;90.60
69776;DHT22;57049;51.450;-2.516;2023-06-04T04:19:21;9.72;90.40
69776;DHT22;57049;51.450;-2.516;2023-06-04T04:21:47;9.76;90.28
69776;DHT22;57049;51.450;-2.516;2023-06-04T04:24:27;9.82;89.95
69776;DHT22;57049;51.450;-2.516;2023-06-04T04:26:54;9.85;89.87
69776;DHT22;57049;51.450;-2.516;2023-06-04T04:29:20;9.73;89.95
69776;DHT22;57049;51.450;-2.516;2023-06-04T04:31:51;9.66;90.19
69776;DHT22;57049;51.450;-2.516;2023-06-04T04:34:16;9.65;90.24
69776;DHT22;57049;51.450;-2.516;2023-06-04T04:36:43;9.66;90.26
69776;DHT22;57049;51.450;-2.516;2023-06-04T04:39:09;9.73;90.09
69776;DHT22;57049;51.450;-2.516;2023-06-04T04:41:37;9.80;89.70
69776;DHT22;57049;51.450;-2.516;2023-06-04T04:44:03;9.80;89.63
69776;DHT22;57049;51.450;-2.516;2023-06-04T04:46:29;9.82;89.68
69776;DHT22;57049;51.450;-2.516;2023-06-04T04:48:55;9.69;90.12
69776;DHT22;57049;51.450;-2.516;2023-06-04T04:51:21;9.78;89.77
69776;DHT22;57049;51.450;-2.516;2023-06-04T04:53:47;9.82;89.58
69776;DHT22;57049;51.450;-2.516;2023-06-04T04:56:12;9.80;89.41
69776;DHT22;57049;51.450;-2.516;2023-06-04T04:58:38;9.79;89.35
69776;DHT22;57049;51.450;-2.516;2023-06-04T05:01:03;9.76;89.26
69776;DHT22;57049;51.450;-2.516;2023-06-04T05:03:29;9.92;89.12
69776;DHT22;57049;51.450;-2.516;2023-06-04T05:05:54;9.87;88.82
69776;DHT22;57049;51.450;-2.516;2023-06-04T05:08:20;9.86;88.76
69776;DHT22;57049;51.450;-2.516;2023-06-04T05:10:45;10.04;88.15
69776;DHT22;57049;51.450;-2.516;2023-06-04T05:13:11;10.13;87.94
69776;DHT22;57049;51.450;-2.516;2023-06-04T05:15:36;10.09;87.52
69776;DHT22;57049;51.450;-2.516;2023-06-04T05:18:02;10.10;87.51
69776;DHT22;57049;51.450;-2.516;2023-06-04T05:20:29;10.13;87.49
69776;DHT22;57049;51.450;-2.516;2023-06-04T05:22:55;10.14;87.30
69776;DHT22;57049;51.450;-2.516;2023-06-04T05:25:20;10.18;87.28
69776;DHT22;57049;51.450;-2.516;2023-06-04T05:27:46;10.14;87.20
69776;DHT22;57049;51.450;-2.516;2023-06-04T05:30:14;10.27;87.10
69776;DHT22;57049;51.450;-2.516;2023-06-04T05:32:41;10.58;86.37
69776;DHT22;57049;51.450;-2.516;2023-06-04T05:35:07;10.69;85.91
69776;DHT22;57049;51.450;-2.516;2023-06-04T05:37:33;10.79;85.52
69776;DHT22;57049;51.450;-2.516;2023-06-04T05:39:59;11.11;84.90
69776;DHT22;57049;51.450;-2.516;2023-06-04T05:42:25;12.10;82.09
69776;DHT22;57049;51.450;-2.516;2023-06-04T05:44:51;12.66;78.76
69776;DHT22;57049;51.450;-2.516;2023-06-04T05:47:17;13.20;76.54
69776;DHT22;57049;51.450;-2.516;2023-06-04T05:49:43;13.85;75.09
69776;DHT22;57049;51.450;-2.516;2023-06-04T05:52:09;14.93;72.21
69776;DHT22;57049;51.450;-2.516;2023-06-04T05:54:35;15.51;68.65
69776;DHT22;57049;51.450;-2.516;2023-06-04T05:57:02;15.55;70.06
69776;DHT22;57049;51.450;-2.516;2023-06-04T05:59:28;15.36;69.10
69776;DHT22;57049;51.450;-2.516;2023-06-04T06:01:53;14.77;70.48
69776;DHT22;57049;51.450;-2.516;2023-06-04T06:04:19;16.23;67.99
69776;DHT22;57049;51.450;-2.516;2023-06-04T06:06:45;16.21;67.46
69776;DHT22;57049;51.450;-2.516;2023-06-04T06:09:12;16.65;65.73
69776;DHT22;57049;51.450;-2.516;2023-06-04T06:11:38;17.19;63.68
69776;DHT22;57049;51.450;-2.516;2023-06-04T06:14:03;16.18;65.35
69776;DHT22;57049;51.450;-2.516;2023-06-04T06:16:28;17.35;63.15
69776;DHT22;57049;51.450;-2.516;2023-06-04T06:18:55;16.95;62.59
69776;DHT22;57049;51.450;-2.516;2023-06-04T06:21:20;18.08;61.58
69776;DHT22;57049;51.450;-2.516;2023-06-04T06:23:46;19.13;58.91
69776;DHT22;57049;51.450;-2.516;2023-06-04T06:26:11;17.05;61.32
69776;DHT22;57049;51.450;-2.516;2023-06-04T06:28:37;17.54;61.91
69776;DHT22;57049;51.450;-2.516;2023-06-04T06:31:03;17.11;62.39
69776;DHT22;57049;51.450;-2.516;2023-06-04T06:33:28;17.76;60.29
69776;DHT22;57049;51.450;-2.516;2023-06-04T06:35:53;19.38;56.82
69776;DHT22;57049;51.450;-2.516;2023-06-04T06:38:19;18.89;57.92
69776;DHT22;57049;51.450;-2.516;2023-06-04T06:40:45;16.89;61.22
69776;DHT22;57049;51.450;-2.516;2023-06-04T06:43:10;15.58;65.74
69776;DHT22;57049;51.450;-2.516;2023-06-04T06:45:36;16.18;64.80
69776;DHT22;57049;51.450;-2.516;2023-06-04T06:48:02;16.92;62.66
69776;DHT22;57049;51.450;-2.516;2023-06-04T06:50:27;17.91;61.54
69776;DHT22;57049;51.450;-2.516;2023-06-04T06:52:53;17.11;61.70
69776;DHT22;57049;51.450;-2.516;2023-06-04T06:55:18;16.03;62.72
69776;DHT22;57049;51.450;-2.516;2023-06-04T06:57:44;16.27;64.55
69776;DHT22;57049;51.450;-2.516;2023-06-04T07:00:10;16.03;64.74
69776;DHT22;57049;51.450;-2.516;2023-06-04T07:02:36;16.24;64.68
69776;DHT22;57049;51.450;-2.516;2023-06-04T07:05:02;16.26;64.57
69776;DHT22;57049;51.450;-2.516;2023-06-04T07:07:28;16.36;64.29
69776;DHT22;57049;51.450;-2.516;2023-06-04T07:09:53;16.13;64.33
69776;DHT22;57049;51.450;-2.516;2023-06-04T07:12:19;16.71;62.91
69776;DHT22;57049;51.450;-2.516;2023-06-04T07:14:44;17.40;62.68
69776;DHT22;57049;51.450;-2.516;2023-06-04T07:17:10;18.37;58.51
69776;DHT22;57049;51.450;-2.516;2023-06-04T07:19:36;16.61;62.72
69776;DHT22;57049;51.450;-2.516;2023-06-04T07:22:01;17.39;61.30
69776;DHT22;57049;51.450;-2.516;2023-06-04T07:24:36;16.28;63.63
69776;DHT22;57049;51.450;-2.516;2023-06-04T07:27:01;17.47;61.46
69776;DHT22;57049;51.450;-2.516;2023-06-04T07:29:27;16.78;62.14
69776;DHT22;57049;51.450;-2.516;2023-06-04T07:31:52;17.38;62.17
69776;DHT22;57049;51.450;-2.516;2023-06-04T07:34:18;16.99;62.19
69776;DHT22;57049;51.450;-2.516;2023-06-04T07:36:43;18.54;58.97
69776;DHT22;57049;51.450;-2.516;2023-06-04T07:39:09;17.50;60.44
69776;DHT22;57049;51.450;-2.516;2023-06-04T07:41:34;17.38;60.49
69776;DHT22;57049;51.450;-2.516;2023-06-04T07:44:00;18.27;59.74
69776;DHT22;57049;51.450;-2.516;2023-06-04T07:46:27;18.35;59.61
69776;DHT22;57049;51.450;-2.516;2023-06-04T07:48:53;17.46;61.48
69776;DHT22;57049;51.450;-2.516;2023-06-04T07:51:18;17.89;59.36
69776;DHT22;57049;51.450;-2.516;2023-06-04T07:53:44;18.13;58.86
69776;DHT22;57049;51.450;-2.516;2023-06-04T07:56:10;17.32;59.97
69776;DHT22;57049;51.450;-2.516;2023-06-04T07:58:35;17.50;60.63
69776;DHT22;57049;51.450;-2.516;2023-06-04T08:01:01;17.63;59.23
69776;DHT22;57049;51.450;-2.516;2023-06-04T08:03:26;17.32;59.26
69776;DHT22;57049;51.450;-2.516;2023-06-04T08:05:52;18.08;57.73
69776;DHT22;57049;51.450;-2.516;2023-06-04T08:08:17;17.77;59.40
69776;DHT22;57049;51.450;-2.516;2023-06-04T08:10:43;18.03;58.45
69776;DHT22;57049;51.450;-2.516;2023-06-04T08:13:08;18.88;56.28
69776;DHT22;57049;51.450;-2.516;2023-06-04T08:15:35;18.10;57.36
69776;DHT22;57049;51.450;-2.516;2023-06-04T08:18:00;19.53;55.35
69776;DHT22;57049;51.450;-2.516;2023-06-04T08:20:26;19.14;54.92
69776;DHT22;57049;51.450;-2.516;2023-06-04T08:22:51;19.19;54.49
69776;DHT22;57049;51.450;-2.516;2023-06-04T08:25:17;19.17;55.17
69776;DHT22;57049;51.450;-2.516;2023-06-04T08:27:42;19.88;53.35
69776;DHT22;57049;51.450;-2.516;2023-06-04T08:30:09;20.02;51.33
69776;DHT22;57049;51.450;-2.516;2023-06-04T08:32:34;18.92;55.09
69776;DHT22;57049;51.450;-2.516;2023-06-04T08:35:00;18.11;55.96
69776;DHT22;57049;51.450;-2.516;2023-06-04T08:37:26;18.51;55.72
69776;DHT22;57049;51.450;-2.516;2023-06-04T08:39:51;18.83;54.99
69776;DHT22;57049;51.450;-2.516;2023-06-04T08:42:31;18.32;54.97
69776;DHT22;57049;51.450;-2.516;2023-06-04T08:45:00;19.60;53.23
69776;DHT22;57049;51.450;-2.516;2023-06-04T08:47:25;19.41;52.83
69776;DHT22;57049;51.450;-2.516;2023-06-04T08:49:52;18.48;54.42
69776;DHT22;57049;51.450;-2.516;2023-06-04T08:52:18;19.00;54.73
69776;DHT22;57049;51.450;-2.516;2023-06-04T08:54:48;18.64;54.40
69776;DHT22;57049;51.450;-2.516;2023-06-04T08:57:17;19.19;53.60
69776;DHT22;57049;51.450;-2.516;2023-06-04T08:59:42;19.26;53.44
69776;DHT22;57049;51.450;-2.516;2023-06-04T09:02:08;19.24;54.11
69776;DHT22;57049;51.450;-2.516;2023-06-04T09:04:33;19.44;54.11
69776;DHT22;57049;51.450;-2.516;2023-06-04T09:07:03;21.03;50.13
69776;DHT22;57049;51.450;-2.516;2023-06-04T09:09:29;20.40;50.89
69776;DHT22;57049;51.450;-2.516;2023-06-04T09:11:56;20.52;51.28
69776;DHT22;57049;51.450;-2.516;2023-06-04T09:14:23;20.70;49.79
69776;DHT22;57049;51.450;-2.516;2023-06-04T09:16:53;20.25;51.04
69776;DHT22;57049;51.450;-2.516;2023-06-04T09:19:20;19.57;52.76
69776;DHT22;57049;51.450;-2.516;2023-06-04T09:22:04;20.29;52.35
69776;DHT22;57049;51.450;-2.516;2023-06-04T09:24:44;20.15;51.88
69776;DHT22;57049;51.450;-2.516;2023-06-04T09:27:19;20.30;52.24
69776;DHT22;57049;51.450;-2.516;2023-06-04T09:29:54;19.40;53.07
69776;DHT22;57049;51.450;-2.516;2023-06-04T09:32:23;19.65;53.07
69776;DHT22;57049;51.450;-2.516;2023-06-04T09:34:48;20.14;52.17
69776;DHT22;57049;51.450;-2.516;2023-06-04T09:37:14;20.50;49.97
69776;DHT22;57049;51.450;-2.516;2023-06-04T09:39:43;20.52;50.67
69776;DHT22;57049;51.450;-2.516;2023-06-04T09:42:08;19.88;52.55
69776;DHT22;57049;51.450;-2.516;2023-06-04T09:44:42;19.30;53.77
69776;DHT22;57049;51.450;-2.516;2023-06-04T09:47:08;19.85;53.08
69776;DHT22;57049;51.450;-2.516;2023-06-04T09:49:51;19.41;53.84
69776;DHT22;57049;51.450;-2.516;2023-06-04T09:52:17;19.99;52.75
69776;DHT22;57049;51.450;-2.516;2023-06-04T09:54:43;20.42;51.14
69776;DHT22;57049;51.450;-2.516;2023-06-04T09:57:18;20.63;51.33
69776;DHT22;57049;51.450;-2.516;2023-06-04T09:59:49;20.18;52.18
69776;DHT22;57049;51.450;-2.516;2023-06-04T10:02:21;20.32;51.89
69776;DHT22;57049;51.450;-2.516;2023-06-04T10:04:54;20.81;51.30
69776;DHT22;57049;51.450;-2.516;2023-06-04T10:07:23;20.49;51.82
69776;DHT22;57049;51.450;-2.516;2023-06-04T10:09:50;19.82;54.05
69776;DHT22;57049;51.450;-2.516;2023-06-04T10:12:26;20.14;52.42
69776;DHT22;57049;51.450;-2.516;2023-06-04T10:15:02;18.64;55.07
69776;DHT22;57049;51.450;-2.516;2023-06-04T10:17:30;18.68;55.46
69776;DHT22;57049;51.450;-2.516;2023-06-04T10:19:58;18.62;55.19
69776;DHT22;57049;51.450;-2.516;2023-06-04T10:22:25;19.17;55.11
69776;DHT22;57049;51.450;-2.516;2023-06-04T10:24:50;19.54;54.22
69776;DHT22;57049;51.450;-2.516;2023-06-04T10:27:20;19.34;53.90
69776;DHT22;57049;51.450;-2.516;2023-06-04T10:29:47;19.02;55.13
69776;DHT22;57049;51.450;-2.516;2023-06-04T10:32:15;19.03;55.63
69776;DHT22;57049;51.450;-2.516;2023-06-04T10:34:40;19.38;54.24
69776;DHT22;57049;51.450;-2.516;2023-06-04T10:37:06;19.49;53.80
69776;DHT22;57049;51.450;-2.516;2023-06-04T10:39:32;19.16;54.16
69776;DHT22;57049;51.450;-2.516;2023-06-04T10:42:03;19.06;53.68
69776;DHT22;57049;51.450;-2.516;2023-06-04T10:44:46;19.05;53.77
69776;DHT22;57049;51.450;-2.516;2023-06-04T10:47:22;19.31;53.48
69776;DHT22;57049;51.450;-2.516;2023-06-04T10:49:49;19.14;52.65
69776;DHT22;57049;51.450;-2.516;2023-06-04T10:52:14;19.49;52.18
69776;DHT22;57049;51.450;-2.516;2023-06-04T10:54:42;19.63;52.82
69776;DHT22;57049;51.450;-2.516;2023-06-04T10:57:12;19.81;52.40
69776;DHT22;57049;51.450;-2.516;2023-06-04T10:59:38;19.99;52.34
69776;DHT22;57049;51.450;-2.516;2023-06-04T11:02:08;19.54;51.42
69776;DHT22;57049;51.450;-2.516;2023-06-04T11:04:35;19.13;51.67
69776;DHT22;57049;51.450;-2.516;2023-06-04T11:07:03;19.46;51.68
69776;DHT22;57049;51.450;-2.516;2023-06-04T11:09:38;19.49;51.87
69776;DHT22;57049;51.450;-2.516;2023-06-04T11:12:12;19.64;51.87
69776;DHT22;57049;51.450;-2.516;2023-06-04T11:14:37;19.92;52.22
69776;DHT22;57049;51.450;-2.516;2023-06-04T11:17:13;19.94;52.03
69776;DHT22;57049;51.450;-2.516;2023-06-04T11:19:40;20.28;51.77
69776;DHT22;57049;51.450;-2.516;2023-06-04T11:22:05;20.19;51.10
69776;DHT22;57049;51.450;-2.516;2023-06-04T11:24:32;19.95;51.84
69776;DHT22;57049;51.450;-2.516;2023-06-04T11:26:58;20.11;50.13
69776;DHT22;57049;51.450;-2.516;2023-06-04T11:29:27;19.87;52.13
69776;DHT22;57049;51.450;-2.516;2023-06-04T11:31:53;20.25;52.05
69776;DHT22;57049;51.450;-2.516;2023-06-04T11:34:29;20.43;50.73
69776;DHT22;57049;51.450;-2.516;2023-06-04T11:36:55;20.01;48.77
69776;DHT22;57049;51.450;-2.516;2023-06-04T11:39:21;19.95;49.32
69776;DHT22;57049;51.450;-2.516;2023-06-04T11:41:48;20.15;47.77
69776;DHT22;57049;51.450;-2.516;2023-06-04T11:44:18;19.94;49.76
69776;DHT22;57049;51.450;-2.516;2023-06-04T11:46:47;19.99;48.89
69776;DHT22;57049;51.450;-2.516;2023-06-04T11:49:18;20.21;48.22
69776;DHT22;57049;51.450;-2.516;2023-06-04T11:51:51;20.30;47.81
69776;DHT22;57049;51.450;-2.516;2023-06-04T11:54:18;20.59;47.59
69776;DHT22;57049;51.450;-2.516;2023-06-04T11:56:45;20.56;48.22
69776;DHT22;57049;51.450;-2.516;2023-06-04T11:59:13;20.67;49.38
69776;DHT22;57049;51.450;-2.516;2023-06-04T12:01:42;20.84;48.22
69776;DHT22;57049;51.450;-2.516;2023-06-04T12:04:16;20.53;47.46
69776;DHT22;57049;51.450;-2.516;2023-06-04T12:06:55;20.55;48.86
69776;DHT22;57049;51.450;-2.516;2023-06-04T12:09:25;20.69;48.48
69776;DHT22;57049;51.450;-2.516;2023-06-04T12:12:02;20.89;47.54
69776;DHT22;57049;51.450;-2.516;2023-06-04T12:14:28;20.84;48.05
69776;DHT22;57049;51.450;-2.516;2023-06-04T12:17:07;21.08;47.80
69776;DHT22;57049;51.450;-2.516;2023-06-04T12:19:44;20.81;47.13
69776;DHT22;57049;51.450;-2.516;2023-06-04T12:22:10;20.87;47.35
69776;DHT22;57049;51.450;-2.516;2023-06-04T12:24:52;20.89;47.56
69776;DHT22;57049;51.450;-2.516;2023-06-04T12:27:20;20.86;46.52
69776;DHT22;57049;51.450;-2.516;2023-06-04T12:29:56;20.63;46.91
69776;DHT22;57049;51.450;-2.516;2023-06-04T12:32:22;21.17;46.94
69776;DHT22;57049;51.450;-2.516;2023-06-04T12:34:48;21.71;46.13
69776;DHT22;57049;51.450;-2.516;2023-06-04T12:37:13;21.62;46.11
69776;DHT22;57049;51.450;-2.516;2023-06-04T12:39:39;21.62;47.12
69776;DHT22;57049;51.450;-2.516;2023-06-04T12:42:07;21.30;47.23
69776;DHT22;57049;51.450;-2.516;2023-06-04T12:44:35;21.30;47.54
69776;DHT22;57049;51.450;-2.516;2023-06-04T12:47:02;21.44;47.01
69776;DHT22;57049;51.450;-2.516;2023-06-04T12:49:27;21.52;45.88
69776;DHT22;57049;51.450;-2.516;2023-06-04T12:51:53;21.44;44.66
69776;DHT22;57049;51.450;-2.516;2023-06-04T12:54:18;21.96;45.52
69776;DHT22;57049;51.450;-2.516;2023-06-04T12:56:44;21.78;45.12
69776;DHT22;57049;51.450;-2.516;2023-06-04T12:59:09;21.61;45.70
69776;DHT22;57049;51.450;-2.516;2023-06-04T13:01:47;21.54;44.70
69776;DHT22;57049;51.450;-2.516;2023-06-04T13:04:12;21.74;45.75
69776;DHT22;57049;51.450;-2.516;2023-06-04T13:06:38;21.91;46.55
69776;DHT22;57049;51.450;-2.516;2023-06-04T13:09:04;21.74;44.67
69776;DHT22;57049;51.450;-2.516;2023-06-04T13:11:37;21.95;43.65
69776;DHT22;57049;51.450;-2.516;2023-06-04T13:14:02;21.74;44.22
69776;DHT22;57049;51.450;-2.516;2023-06-04T13:16:28;21.63;44.42
69776;DHT22;57049;51.450;-2.516;2023-06-04T13:18:53;21.62;45.36
69776;DHT22;57049;51.450;-2.516;2023-06-04T13:21:19;21.89;44.41
69776;DHT22;57049;51.450;-2.516;2023-06-04T13:23:45;22.19;44.19
69776;DHT22;57049;51.450;-2.516;2023-06-04T13:26:11;22.01;44.02
69776;DHT22;57049;51.450;-2.516;2023-06-04T13:28:37;21.95;45.36
69776;DHT22;57049;51.450;-2.516;2023-06-04T13:31:02;21.85;45.39
69776;DHT22;57049;51.450;-2.516;2023-06-04T13:33:28;21.99;45.45
69776;DHT22;57049;51.450;-2.516;2023-06-04T13:35:53;22.06;45.72
69776;DHT22;57049;51.450;-2.516;2023-06-04T13:38:19;22.36;44.40
69776;DHT22;57049;51.450;-2.516;2023-06-04T13:40:45;22.37;43.65
69776;DHT22;57049;51.450;-2.516;2023-06-04T13:43:10;22.20;43.94
69776;DHT22;57049;51.450;-2.516;2023-06-04T13:45:36;22.24;44.85
69776;DHT22;57049;51.450;-2.516;2023-06-04T13:48:01;22.22;44.47
69776;DHT22;57049;51.450;-2.516;2023-06-04T13:50:34;22.49;44.41
69776;DHT22;57049;51.450;-2.516;2023-06-04T13:53:00;22.83;43.68
69776;DHT22;57049;51.450;-2.516;2023-06-04T13:55:25;22.61;42.82
69776;DHT22;57049;51.450;-2.516;2023-06-04T13:57:51;22.87;43.62
69776;DHT22;57049;51.450;-2.516;2023-06-04T14:00:17;23.25;43.29
69776;DHT22;57049;51.450;-2.516;2023-06-04T14:02:42;22.88;43.46
69776;DHT22;57049;51.450;-2.516;2023-06-04T14:05:08;22.61;42.61
69776;DHT22;57049;51.450;-2.516;2023-06-04T14:07:34;23.00;43.44
69776;DHT22;57049;51.450;-2.516;2023-06-04T14:10:00;22.67;43.80
69776;DHT22;57049;51.450;-2.516;2023-06-04T14:12:25;22.56;44.74
69776;DHT22;57049;51.450;-2.516;2023-06-04T14:14:51;22.93;44.17
69776;DHT22;57049;51.450;-2.516;2023-06-04T14:17:17;23.05;44.93
69776;DHT22;57049;51.450;-2.516;2023-06-04T14:19:42;22.70;42.95
69776;DHT22;57049;51.450;-2.516;2023-06-04T14:22:10;22.86;43.43
69776;DHT22;57049;51.450;-2.516;2023-06-04T14:24:35;23.01;43.66
69776;DHT22;57049;51.450;-2.516;2023-06-04T14:27:01;22.71;43.27
69776;DHT22;57049;51.450;-2.516;2023-06-04T14:29:26;22.78;44.17
69776;DHT22;57049;51.450;-2.516;2023-06-04T14:31:52;22.77;43.42
69776;DHT22;57049;51.450;-2.516;2023-06-04T14:34:17;22.77;43.00
69776;DHT22;57049;51.450;-2.516;2023-06-04T14:36:43;22.75;44.31
69776;DHT22;57049;51.450;-2.516;2023-06-04T14:39:08;22.49;45.08
69776;DHT22;57049;51.450;-2.516;2023-06-04T14:41:34;22.88;44.65
69776;DHT22;57049;51.450;-2.516;2023-06-04T14:43:59;22.98;44.36
69776;DHT22;57049;51.450;-2.516;2023-06-04T14:46:25;23.16;43.20
69776;DHT22;57049;51.450;-2.516;2023-06-04T14:48:51;23.41;42.93
69776;DHT22;57049;51.450;-2.516;2023-06-04T14:51:17;23.39;42.54
69776;DHT22;57049;51.450;-2.516;2023-06-04T14:53:45;23.11;43.45
69776;DHT22;57049;51.450;-2.516;2023-06-04T14:56:10;23.59;43.67
69776;DHT22;57049;51.450;-2.516;2023-06-04T14:58:36;23.79;43.32
69776;DHT22;57049;51.450;-2.516;2023-06-04T15:01:01;23.72;42.96
69776;DHT22;57049;51.450;-2.516;2023-06-04T15:03:29;23.29;43.30
69776;DHT22;57049;51.450;-2.516;2023-06-04T15:05:55;23.21;43.48
69776;DHT22;57049;51.450;-2.516;2023-06-04T15:08:21;23.44;43.42
69776;DHT22;57049;51.450;-2.516;2023-06-04T15:10:47;23.52;42.38
69776;DHT22;57049;51.450;-2.516;2023-06-04T15:13:12;23.21;42.61
69776;DHT22;57049;51.450;-2.516;2023-06-04T15:15:38;23.35;42.79
69776;DHT22;57049;51.450;-2.516;2023-06-04T15:18:06;23.80;43.33